sensor_id;sensor_type;location;lat;lon;timestamp;pressure;altitude;pressure_sealevel;temperature;humidity
44926;BME280;30662;51.210;7.656;2024-02-16T00:01:08;151460.91;;;10.65;100.00
44926;BME280;30662;51.210;7.656;2024-02-16T00:03:36;151467.22;;;10.68;100.00
44926;BME280;30662;51.210;7.656;2024-02-16T00:06:03;151496.38;;;10.80;100.00
44926;BME280;30662;51.210;7.656;2024-02-16T00:08:30;151505.19;;;10.83;100.00
44926;BME280;30662;51.210;7.656;2024-02-16T00:10:57;151500.16;;;10.81;100.00
44926;BME280;30662;51.210;7.656;2024-02-16T00:13:25;151476.06;;;10.71;100.00
44926;BME280;30662;51.210;7.656;2024-02-16T00:15:52;151491.25;;;10.77;100.00
44926;BME280;30662;51.210;7.656;2024-02-16T00:18:18;151507.72;;;10.84;100.00
44926;BME280;30662;51.210;7.656;2024-02-16T00:20:47;151491.25;;;10.77;100.00
44926;BME280;30662;51.210;7.656;2024-02-16T00:23:13;151509.00;;;10.85;100.00
44926;BME280;30662;51.210;7.656;2024-02-16T00:25:40;151509.00;;;10.85;100.00
44926;BME280;30662;51.210;7.656;2024-02-16T00:28:08;151515.34;;;10.87;100.00
44926;BME280;30662;51.210;7.656;2024-02-16T00:30:34;151520.41;;;10.89;100.00
44926;BME280;30662;51.210;7.656;2024-02-16T00:33:01;151510.25;;;10.85;100.00
44926;BME280;30662;51.210;7.656;2024-02-16T00:35:28;151536.88;;;10.96;100.00
44926;BME280;30662;51.210;7.656;2024-02-16T00:37:56;151514.09;;;10.87;100.00
44926;BME280;30662;51.210;7.656;2024-02-16T00:40:23;151516.63;;;10.88;100.00
44926;BME280;30662;51.210;7.656;2024-02-16T00:42:49;151525.47;;;10.91;100.00
44926;BME280;30662;51.210;7.656;2024-02-16T00:45:16;151541.91;;;10.98;100.00
44926;BME280;30662;51.210;7.656;2024-02-16T00:47:43;151539.41;;;10.97;100.00
44926;BME280;30662;51.210;7.656;2024-02-16T00:50:10;151546.97;;;11.00;100.00
44926;BME280;30662;51.210;7.656;2024-02-16T00:52:36;151530.50;;;10.93;100.00
44926;BME280;30662;51.210;7.656;2024-02-16T00:55:05;151538.13;;;10.96;100.00
44926;BME280;30662;51.210;7.656;2024-02-16T00:57:32;151521.66;;;10.90;100.00
44926;BME280;30662;51.210;7.656;2024-02-16T00:59:59;151538.13;;;10.96;100.00
44926;BME280;30662;51.210;7.656;2024-02-16T01:02:26;151533.06;;;10.94;100.00
44926;BME280;30662;51.210;7.656;2024-02-16T01:04:55;151529.25;;;10.93;100.00
44926;BME280;30662;51.210;7.656;2024-02-16T01:07:22;151520.41;;;10.89;100.00
44926;BME280;30662;51.210;7.656;2024-02-16T01:09:49;151533.06;;;10.94;100.00
44926;BME280;30662;51.210;7.656;2024-02-16T01:12:17;151535.59;;;10.95;100.00
44926;BME280;30662;51.210;7.656;2024-02-16T01:14:44;151536.88;;;10.96;100.00
44926;BME280;30662;51.210;7.656;2024-02-16T01:17:10;151524.19;;;10.91;100.00
44926;BME280;30662;51.210;7.656;2024-02-16T01:19:37;151526.72;;;10.92;100.00
44926;BME280;30662;51.210;7.656;2024-02-16T01:22:04;151510.25;;;10.85;100.00
44926;BME280;30662;51.210;7.656;2024-02-16T01:24:30;151502.69;;;10.82;100.00
44926;BME280;30662;51.210;7.656;2024-02-16T01:26:57;151519.13;;;10.89;100.00
44926;BME280;30662;51.210;7.656;2024-02-16T01:29:25;151534.34;;;10.95;100.00
44926;BME280;30662;51.210;7.656;2024-02-16T01:31:52;151514.09;;;10.87;100.00
44926;BME280;30662;51.210;7.656;2024-02-16T01:34:19;151516.63;;;10.88;100.00
44926;BME280;30662;51.210;7.656;2024-02-16T01:36:46;151510.25;;;10.85;100.00
44926;BME280;30662;51.210;7.656;2024-02-16T01:39:13;151515.34;;;10.87;100.00
44926;BME280;30662;51.210;7.656;2024-02-16T01:41:40;151514.09;;;10.87;100.00
44926;BME280;30662;51.210;7.656;2024-02-16T01:44:07;151510.25;;;10.85;100.00
44926;BME280;30662;51.210;7.656;2024-02-16T01:46:35;151507.72;;;10.84;100.00
44926;BME280;30662;51.210;7.656;2024-02-16T01:49:02;151527.97;;;10.92;100.00
44926;BME280;30662;51.210;7.656;2024-02-16T01:51:29;151505.19;;;10.83;100.00
44926;BME280;30662;51.210;7.656;2024-02-16T01:53:57;151514.09;;;10.87;100.00
44926;BME280;30662;51.210;7.656;2024-02-16T01:56:23;151525.47;;;10.91;100.00
44926;BME280;30662;51.210;7.656;2024-02-16T01:58:50;151514.09;;;10.87;100.00
44926;BME280;30662;51.210;7.656;2024-02-16T02:01:17;151507.72;;;10.84;100.00
44926;BME280;30662;51.210;7.656;2024-02-16T02:03:45;151498.88;;;10.81;100.00
44926;BME280;30662;51.210;7.656;2024-02-16T02:06:12;151520.41;;;10.89;100.00
44926;BME280;30662;51.210;7.656;2024-02-16T02:08:39;151500.16;;;10.81;100.00
44926;BME280;30662;51.210;7.656;2024-02-16T02:11:10;151497.63;;;10.80;100.00
44926;BME280;30662;51.210;7.656;2024-02-16T02:13:37;151493.78;;;10.78;100.00
44926;BME280;30662;51.210;7.656;2024-02-16T02:16:06;151487.47;;;10.76;100.00
44926;BME280;30662;51.210;7.656;2024-02-16T02:18:33;151506.47;;;10.84;100.00
44926;BME280;30662;51.210;7.656;2024-02-16T02:21:01;151493.78;;;10.78;100.00
44926;BME280;30662;51.210;7.656;2024-02-16T02:23:29;151483.69;;;10.74;100.00
44926;BME280;30662;51.210;7.656;2024-02-16T02:25:56;151484.94;;;10.75;100.00
44926;BME280;30662;51.210;7.656;2024-02-16T02:28:25;151493.78;;;10.78;100.00
44926;BME280;30662;51.210;7.656;2024-02-16T02:30:51;151516.63;;;10.88;100.00
44926;BME280;30662;51.210;7.656;2024-02-16T02:33:18;151505.19;;;10.83;100.00
44926;BME280;30662;51.210;7.656;2024-02-16T02:35:45;151512.78;;;10.86;100.00
44926;BME280;30662;51.210;7.656;2024-02-16T02:38:12;151493.78;;;10.78;100.00
44926;BME280;30662;51.210;7.656;2024-02-16T02:40:40;151507.72;;;10.84;100.00
44926;BME280;30662;51.210;7.656;2024-02-16T02:43:07;151510.25;;;10.85;100.00
44926;BME280;30662;51.210;7.656;2024-02-16T02:45:34;151501.41;;;10.82;100.00
44926;BME280;30662;51.210;7.656;2024-02-16T02:48:00;151487.47;;;10.76;100.00
44926;BME280;30662;51.210;7.656;2024-02-16T02:50:27;151498.88;;;10.81;100.00
44926;BME280;30662;51.210;7.656;2024-02-16T02:52:54;151521.66;;;10.90;100.00
44926;BME280;30662;51.210;7.656;2024-02-16T02:55:20;151533.06;;;10.94;100.00
44926;BME280;30662;51.210;7.656;2024-02-16T02:57:48;151527.97;;;10.92;100.00
44926;BME280;30662;51.210;7.656;2024-02-16T03:00:16;151553.34;;;11.02;100.00
44926;BME280;30662;51.210;7.656;2024-02-16T03:02:43;151550.81;;;11.01;100.00
44926;BME280;30662;51.210;7.656;2024-02-16T03:05:09;151548.25;;;11.00;100.00
44926;BME280;30662;51.210;7.656;2024-02-16T03:07:36;151559.66;;;11.05;100.00
44926;BME280;30662;51.210;7.656;2024-02-16T03:10:03;151550.81;;;11.01;100.00
44926;BME280;30662;51.210;7.656;2024-02-16T03:12:31;151546.97;;;11.00;100.00
44926;BME280;30662;51.210;7.656;2024-02-16T03:14:59;151524.19;;;10.91;100.00
44926;BME280;30662;51.210;7.656;2024-02-16T03:17:26;151514.09;;;10.87;100.00
44926;BME280;30662;51.210;7.656;2024-02-16T03:19:53;151531.81;;;10.94;100.00
44926;BME280;30662;51.210;7.656;2024-02-16T03:22:20;151526.72;;;10.92;100.00
44926;BME280;30662;51.210;7.656;2024-02-16T03:24:47;151524.19;;;10.91;100.00
44926;BME280;30662;51.210;7.656;2024-02-16T03:27:13;151529.25;;;10.93;100.00
44926;BME280;30662;51.210;7.656;2024-02-16T03:29:40;151509.00;;;10.85;100.00
44926;BME280;30662;51.210;7.656;2024-02-16T03:32:08;151491.25;;;10.77;100.00
44926;BME280;30662;51.210;7.656;2024-02-16T03:34:35;151507.72;;;10.84;100.00
44926;BME280;30662;51.210;7.656;2024-02-16T03:37:01;151522.94;;;10.90;100.00
44926;BME280;30662;51.210;7.656;2024-02-16T03:39:28;151530.50;;;10.93;100.00
44926;BME280;30662;51.210;7.656;2024-02-16T03:41:55;151536.88;;;10.96;100.00
44926;BME280;30662;51.210;7.656;2024-02-16T03:44:21;151578.66;;;11.13;100.00
44926;BME280;30662;51.210;7.656;2024-02-16T03:46:48;151560.91;;;11.05;100.00
44926;BME280;30662;51.210;7.656;2024-02-16T03:49:16;151536.88;;;10.96;100.00
44926;BME280;30662;51.210;7.656;2024-02-16T03:51:43;151522.94;;;10.90;100.00
44926;BME280;30662;51.210;7.656;2024-02-16T03:54:10;151525.47;;;10.91;100.00
44926;BME280;30662;51.210;7.656;2024-02-16T03:56:37;151509.00;;;10.85;100.00
44926;BME280;30662;51.210;7.656;2024-02-16T03:59:04;151525.47;;;10.91;100.00
44926;BME280;30662;51.210;7.656;2024-02-16T04:01:32;151527.97;;;10.92;100.00
44926;BME280;30662;51.210;7.656;2024-02-16T04:03:59;151541.91;;;10.98;100.00
44926;BME280;30662;51.210;7.656;2024-02-16T04:06:27;151529.25;;;10.93;100.00
44926;BME280;30662;51.210;7.656;2024-02-16T04:08:54;151521.66;;;10.90;100.00
44926;BME280;30662;51.210;7.656;2024-02-16T04:11:21;151516.63;;;10.88;100.00
44926;BME280;30662;51.210;7.656;2024-02-16T04:13:48;151483.69;;;10.74;100.00
44926;BME280;30662;51.210;7.656;2024-02-16T04:16:15;151500.16;;;10.81;100.00
44926;BME280;30662;51.210;7.656;2024-02-16T04:18:42;151502.69;;;10.82;100.00
44926;BME280;30662;51.210;7.656;2024-02-16T04:21:08;151505.19;;;10.83;100.00
44926;BME280;30662;51.210;7.656;2024-02-16T04:23:39;151474.81;;;10.71;100.00
44926;BME280;30662;51.210;7.656;2024-02-16T04:26:06;151488.75;;;10.76;100.00
44926;BME280;30662;51.210;7.656;2024-02-16T04:28:33;151467.22;;;10.68;100.00
44926;BME280;30662;51.210;7.656;2024-02-16T04:31:00;151445.72;;;10.59;100.00
44926;BME280;30662;51.210;7.656;2024-02-16T04:33:27;151428.00;;;10.52;100.00
44926;BME280;30662;51.210;7.656;2024-02-16T04:35:54;151426.72;;;10.52;100.00
44926;BME280;30662;51.210;7.656;2024-02-16T04:38:20;151415.31;;;10.47;100.00
44926;BME280;30662;51.210;7.656;2024-02-16T04:40:48;151417.84;;;10.48;100.00
44926;BME280;30662;51.210;7.656;2024-02-16T04:43:15;151419.09;;;10.48;100.00
44926;BME280;30662;51.210;7.656;2024-02-16T04:45:41;151436.81;;;10.56;100.00
44926;BME280;30662;51.210;7.656;2024-02-16T04:48:08;151440.63;;;10.57;100.00
44926;BME280;30662;51.210;7.656;2024-02-16T04:50:35;151436.81;;;10.56;100.00
44926;BME280;30662;51.210;7.656;2024-02-16T04:53:02;151426.72;;;10.52;100.00
44926;BME280;30662;51.210;7.656;2024-02-16T04:55:29;151422.88;;;10.50;100.00
44926;BME280;30662;51.210;7.656;2024-02-16T04:57:57;151435.56;;;10.55;100.00
44926;BME280;30662;51.210;7.656;2024-02-16T05:00:23;151458.34;;;10.64;100.00
44926;BME280;30662;51.210;7.656;2024-02-16T05:02:50;151448.25;;;10.60;100.00
44926;BME280;30662;51.210;7.656;2024-02-16T05:05:17;151428.00;;;10.52;100.00
44926;BME280;30662;51.210;7.656;2024-02-16T05:07:47;151435.56;;;10.55;100.00
44926;BME280;30662;51.210;7.656;2024-02-16T05:10:14;151477.38;;;10.72;100.00
44926;BME280;30662;51.210;7.656;2024-02-16T05:12:41;151463.44;;;10.66;100.00
44926;BME280;30662;51.210;7.656;2024-02-16T05:15:09;151506.47;;;10.84;100.00
44926;BME280;30662;51.210;7.656;2024-02-16T05:17:36;151505.19;;;10.83;100.00
44926;BME280;30662;51.210;7.656;2024-02-16T05:20:03;151500.16;;;10.81;100.00
44926;BME280;30662;51.210;7.656;2024-02-16T05:22:33;151531.81;;;10.94;100.00
44926;BME280;30662;51.210;7.656;2024-02-16T05:25:00;151531.81;;;10.94;100.00
44926;BME280;30662;51.210;7.656;2024-02-16T05:27:27;151534.34;;;10.95;100.00
44926;BME280;30662;51.210;7.656;2024-02-16T05:29:54;151530.50;;;10.93;100.00
44926;BME280;30662;51.210;7.656;2024-02-16T05:32:22;151524.19;;;10.91;100.00
44926;BME280;30662;51.210;7.656;2024-02-16T05:34:48;151533.06;;;10.94;100.00
44926;BME280;30662;51.210;7.656;2024-02-16T05:37:16;151510.25;;;10.85;100.00
44926;BME280;30662;51.210;7.656;2024-02-16T05:39:43;151503.94;;;10.83;100.00
44926;BME280;30662;51.210;7.656;2024-02-16T05:42:10;151490.00;;;10.77;100.00
44926;BME280;30662;51.210;7.656;2024-02-16T05:44:37;151482.41;;;10.74;100.00
44926;BME280;30662;51.210;7.656;2024-02-16T05:47:04;151493.78;;;10.78;100.00
44926;BME280;30662;51.210;7.656;2024-02-16T05:49:31;151495.06;;;10.79;100.00
44926;BME280;30662;51.210;7.656;2024-02-16T05:51:59;151498.88;;;10.81;100.00
44926;BME280;30662;51.210;7.656;2024-02-16T05:54:26;151463.44;;;10.66;100.00
44926;BME280;30662;51.210;7.656;2024-02-16T05:56:52;151455.81;;;10.63;100.00
44926;BME280;30662;51.210;7.656;2024-02-16T05:59:19;151446.97;;;10.60;100.00
44926;BME280;30662;51.210;7.656;2024-02-16T06:01:46;151431.78;;;10.54;100.00
44926;BME280;30662;51.210;7.656;2024-02-16T06:04:13;151417.84;;;10.48;100.00
44926;BME280;30662;51.210;7.656;2024-02-16T06:06:41;151443.19;;;10.58;100.00
44926;BME280;30662;51.210;7.656;2024-02-16T06:09:07;151445.72;;;10.59;100.00
44926;BME280;30662;51.210;7.656;2024-02-16T06:11:36;151429.25;;;10.53;100.00
44926;BME280;30662;51.210;7.656;2024-02-16T06:14:03;151406.47;;;10.43;100.00
44926;BME280;30662;51.210;7.656;2024-02-16T06:16:30;151415.31;;;10.47;100.00
44926;BME280;30662;51.210;7.656;2024-02-16T06:18:56;151421.63;;;10.49;100.00
44926;BME280;30662;51.210;7.656;2024-02-16T06:21:23;151409.00;;;10.44;100.00
44926;BME280;30662;51.210;7.656;2024-02-16T06:23:51;151402.66;;;10.42;100.00
44926;BME280;30662;51.210;7.656;2024-02-16T06:26:18;151424.19;;;10.51;100.00
44926;BME280;30662;51.210;7.656;2024-02-16T06:28:45;151445.72;;;10.59;100.00
44926;BME280;30662;51.210;7.656;2024-02-16T06:31:12;151421.63;;;10.49;100.00
44926;BME280;30662;51.210;7.656;2024-02-16T06:33:39;151425.47;;;10.51;100.00
44926;BME280;30662;51.210;7.656;2024-02-16T06:36:07;151401.38;;;10.41;100.00
44926;BME280;30662;51.210;7.656;2024-02-16T06:38:33;151407.75;;;10.44;100.00
44926;BME280;30662;51.210;7.656;2024-02-16T06:41:01;151397.59;;;10.40;100.00
44926;BME280;30662;51.210;7.656;2024-02-16T06:43:28;151402.66;;;10.42;100.00
44926;BME280;30662;51.210;7.656;2024-02-16T06:45:55;151407.75;;;10.44;100.00
44926;BME280;30662;51.210;7.656;2024-02-16T06:48:22;151398.84;;;10.40;100.00
44926;BME280;30662;51.210;7.656;2024-02-16T06:50:48;151387.50;;;10.36;100.00
44926;BME280;30662;51.210;7.656;2024-02-16T06:53:15;151379.88;;;10.33;100.00
44926;BME280;30662;51.210;7.656;2024-02-16T06:55:42;151393.81;;;10.38;100.00
44926;BME280;30662;51.210;7.656;2024-02-16T06:58:10;151402.66;;;10.42;100.00
44926;BME280;30662;51.210;7.656;2024-02-16T07:00:37;151407.75;;;10.44;100.00
44926;BME280;30662;51.210;7.656;2024-02-16T07:03:04;151416.56;;;10.47;100.00
44926;BME280;30662;51.210;7.656;2024-02-16T07:05:31;151384.91;;;10.35;100.00
44926;BME280;30662;51.210;7.656;2024-02-16T07:07:59;151369.78;;;10.29;100.00
44926;BME280;30662;51.210;7.656;2024-02-16T07:10:26;151396.34;;;10.39;100.00
44926;BME280;30662;51.210;7.656;2024-02-16T07:12:53;151410.25;;;10.45;100.00
44926;BME280;30662;51.210;7.656;2024-02-16T07:15:21;151414.06;;;10.46;100.00
44926;BME280;30662;51.210;7.656;2024-02-16T07:17:56;151443.19;;;10.58;100.00
44926;BME280;30662;51.210;7.656;2024-02-16T07:20:23;151435.56;;;10.55;100.00
44926;BME280;30662;51.210;7.656;2024-02-16T07:22:50;151449.50;;;10.61;100.00
44926;BME280;30662;51.210;7.656;2024-02-16T07:25:16;151467.22;;;10.68;100.00
44926;BME280;30662;51.210;7.656;2024-02-16T07:27:43;151473.53;;;10.70;100.00
44926;BME280;30662;51.210;7.656;2024-02-16T07:30:11;151490.00;;;10.77;100.00
44926;BME280;30662;51.210;7.656;2024-02-16T07:32:39;151483.69;;;10.74;100.00
44926;BME280;30662;51.210;7.656;2024-02-16T07:35:06;151474.81;;;10.71;100.00
44926;BME280;30662;51.210;7.656;2024-02-16T07:37:33;151477.38;;;10.72;100.00
44926;BME280;30662;51.210;7.656;2024-02-16T07:39:59;151500.16;;;10.81;100.00
44926;BME280;30662;51.210;7.656;2024-02-16T07:42:26;151507.72;;;10.84;100.00
44926;BME280;30662;51.210;7.656;2024-02-16T07:44:53;151517.88;;;10.88;100.00
44926;BME280;30662;51.210;7.656;2024-02-16T07:47:20;151540.66;;;10.97;100.00
44926;BME280;30662;51.210;7.656;2024-02-16T07:49:48;151521.66;;;10.90;100.00
44926;BME280;30662;51.210;7.656;2024-02-16T07:52:15;151524.19;;;10.91;100.00
44926;BME280;30662;51.210;7.656;2024-02-16T07:54:42;151521.66;;;10.90;100.00
44926;BME280;30662;51.210;7.656;2024-02-16T07:57:08;151522.94;;;10.90;100.00
44926;BME280;30662;51.210;7.656;2024-02-16T07:59:35;151510.25;;;10.85;100.00
44926;BME280;30662;51.210;7.656;2024-02-16T08:02:02;151533.06;;;10.94;100.00
44926;BME280;30662;51.210;7.656;2024-02-16T08:04:29;151534.34;;;10.95;100.00
44926;BME280;30662;51.210;7.656;2024-02-16T08:06:57;151548.25;;;11.00;100.00
44926;BME280;30662;51.210;7.656;2024-02-16T08:09:24;151569.81;;;11.09;100.00
44926;BME280;30662;51.210;7.656;2024-02-16T08:11:50;151558.38;;;11.04;100.00
44926;BME280;30662;51.210;7.656;2024-02-16T08:14:17;151581.16;;;11.14;100.00
44926;BME280;30662;51.210;7.656;2024-02-16T08:16:44;151577.38;;;11.12;100.00
44926;BME280;30662;51.210;7.656;2024-02-16T08:19:11;151576.13;;;11.12;100.00
44926;BME280;30662;51.210;7.656;2024-02-16T08:21:38;151552.06;;;11.02;100.00
44926;BME280;30662;51.210;7.656;2024-02-16T08:24:06;151549.53;;;11.01;100.00
44926;BME280;30662;51.210;7.656;2024-02-16T08:26:33;151565.97;;;11.08;100.00
44926;BME280;30662;51.210;7.656;2024-02-16T08:29:00;151562.19;;;11.06;100.00
44926;BME280;30662;51.210;7.656;2024-02-16T08:31:26;151534.34;;;10.95;100.00
44926;BME280;30662;51.210;7.656;2024-02-16T08:33:53;151517.88;;;10.88;100.00
44926;BME280;30662;51.210;7.656;2024-02-16T08:36:20;151474.81;;;10.71;100.00
44926;BME280;30662;51.210;7.656;2024-02-16T08:38:47;151472.28;;;10.70;100.00
44926;BME280;30662;51.210;7.656;2024-02-16T08:41:15;151464.69;;;10.67;100.00
44926;BME280;30662;51.210;7.656;2024-02-16T08:43:41;151440.63;;;10.57;100.00
44926;BME280;30662;51.210;7.656;2024-02-16T08:46:08;151433.03;;;10.54;100.00
44926;BME280;30662;51.210;7.656;2024-02-16T08:48:35;151420.38;;;10.49;100.00
44926;BME280;30662;51.210;7.656;2024-02-16T08:51:02;151440.63;;;10.57;100.00
44926;BME280;30662;51.210;7.656;2024-02-16T08:53:29;151445.72;;;10.59;100.00
44926;BME280;30662;51.210;7.656;2024-02-16T08:55:55;151424.19;;;10.51;100.00
44926;BME280;30662;51.210;7.656;2024-02-16T08:58:26;151431.78;;;10.54;100.00
44926;BME280;30662;51.210;7.656;2024-02-16T09:00:53;151446.97;;;10.60;100.00
44926;BME280;30662;51.210;7.656;2024-02-16T09:03:20;151462.16;;;10.66;100.00
44926;BME280;30662;51.210;7.656;2024-02-16T09:05:47;151481.16;;;10.73;100.00
44926;BME280;30662;51.210;7.656;2024-02-16T09:08:13;151509.00;;;10.85;100.00
44926;BME280;30662;51.210;7.656;2024-02-16T09:10:40;151519.13;;;10.89;100.00
44926;BME280;30662;51.210;7.656;2024-02-16T09:13:07;151512.78;;;10.86;100.00
44926;BME280;30662;51.210;7.656;2024-02-16T09:15:35;151564.69;;;11.07;100.00
44926;BME280;30662;51.210;7.656;2024-02-16T09:18:02;151601.44;;;11.22;100.00
44926;BME280;30662;51.210;7.656;2024-02-16T09:20:29;151654.63;;;11.43;100.00
44926;BME280;30662;51.210;7.656;2024-02-16T09:22:56;151652.09;;;11.42;100.00
44926;BME280;30662;51.210;7.656;2024-02-16T09:25:22;151673.63;;;11.51;100.00
44926;BME280;30662;51.210;7.656;2024-02-16T09:27:49;151616.63;;;11.28;100.00
44926;BME280;30662;51.210;7.656;2024-02-16T09:30:16;151590.06;;;11.17;100.00
44926;BME280;30662;51.210;7.656;2024-02-16T09:32:45;151591.31;;;11.18;100.00
44926;BME280;30662;51.210;7.656;2024-02-16T09:35:12;151626.78;;;11.32;100.00
44926;BME280;30662;51.210;7.656;2024-02-16T09:37:39;151678.72;;;11.53;100.00
44926;BME280;30662;51.210;7.656;2024-02-16T09:40:07;151706.56;;;11.64;100.00
44926;BME280;30662;51.210;7.656;2024-02-16T09:42:37;151739.53;;;11.77;100.00
44926;BME280;30662;51.210;7.656;2024-02-16T09:45:06;151682.53;;;11.54;100.00
44926;BME280;30662;51.210;7.656;2024-02-16T09:47:34;151686.31;;;11.56;100.00
44926;BME280;30662;51.210;7.656;2024-02-16T09:50:02;151705.31;;;11.64;100.00
44926;BME280;30662;51.210;7.656;2024-02-16T09:52:29;151710.38;;;11.66;100.00
44926;BME280;30662;51.210;7.656;2024-02-16T09:54:55;151696.47;;;11.60;100.00
44926;BME280;30662;51.210;7.656;2024-02-16T09:57:22;151693.94;;;11.59;100.00
44926;BME280;30662;51.210;7.656;2024-02-16T09:59:49;151711.69;;;11.66;100.00
44926;BME280;30662;51.210;7.656;2024-02-16T10:02:15;151695.19;;;11.59;100.00
44926;BME280;30662;51.210;7.656;2024-02-16T10:04:42;151706.56;;;11.64;100.00
44926;BME280;30662;51.210;7.656;2024-02-16T10:07:10;151719.25;;;11.69;100.00
44926;BME280;30662;51.210;7.656;2024-02-16T10:09:39;151795.31;;;12.00;100.00
44926;BME280;30662;51.210;7.656;2024-02-16T10:12:06;151759.84;;;11.85;100.00
44926;BME280;30662;51.210;7.656;2024-02-16T10:14:33;151730.69;;;11.74;100.00
44926;BME280;30662;51.210;7.656;2024-02-16T10:17:07;151720.53;;;11.70;100.00
44926;BME280;30662;51.210;7.656;2024-02-16T10:19:34;151658.47;;;11.45;100.00
44926;BME280;30662;51.210;7.656;2024-02-16T10:22:06;151630.59;;;11.33;100.00
44926;BME280;30662;51.210;7.656;2024-02-16T10:24:34;151638.16;;;11.37;100.00
44926;BME280;30662;51.210;7.656;2024-02-16T10:27:01;151674.91;;;11.51;100.00
44926;BME280;30662;51.210;7.656;2024-02-16T10:29:28;151688.84;;;11.57;100.00
44926;BME280;30662;51.210;7.656;2024-02-16T10:31:56;151659.72;;;11.45;100.00
44926;BME280;30662;51.210;7.656;2024-02-16T10:34:24;151673.63;;;11.51;100.00
44926;BME280;30662;51.210;7.656;2024-02-16T10:36:51;151678.72;;;11.53;100.00
44926;BME280;30662;51.210;7.656;2024-02-16T10:39:19;151652.09;;;11.42;100.00
44926;BME280;30662;51.210;7.656;2024-02-16T10:41:47;151649.56;;;11.41;100.00
44926;BME280;30662;51.210;7.656;2024-02-16T10:44:15;151634.38;;;11.35;100.00
44926;BME280;30662;51.210;7.656;2024-02-16T10:46:42;151572.34;;;11.10;100.00
44926;BME280;30662;51.210;7.656;2024-02-16T10:49:09;151600.16;;;11.21;100.00
44926;BME280;30662;51.210;7.656;2024-02-16T10:51:39;151554.59;;;11.03;100.00
44926;BME280;30662;51.210;7.656;2024-02-16T10:54:08;151550.81;;;11.01;100.00
44926;BME280;30662;51.210;7.656;2024-02-16T10:56:35;151549.53;;;11.01;100.00
44926;BME280;30662;51.210;7.656;2024-02-16T10:59:05;151548.25;;;11.00;100.00
44926;BME280;30662;51.210;7.656;2024-02-16T11:01:33;151538.13;;;10.96;100.00
44926;BME280;30662;51.210;7.656;2024-02-16T11:04:04;151514.09;;;10.87;100.00
44926;BME280;30662;51.210;7.656;2024-02-16T11:06:31;151510.25;;;10.85;100.00
44926;BME280;30662;51.210;7.656;2024-02-16T11:09:01;151491.25;;;10.77;100.00
44926;BME280;30662;51.210;7.656;2024-02-16T11:11:28;151492.53;;;10.78;100.00
44926;BME280;30662;51.210;7.656;2024-02-16T11:13:55;151479.91;;;10.73;100.00
44926;BME280;30662;51.210;7.656;2024-02-16T11:16:24;151481.16;;;10.73;100.00
44926;BME280;30662;51.210;7.656;2024-02-16T11:18:52;151496.38;;;10.80;100.00
44926;BME280;30662;51.210;7.656;2024-02-16T11:21:19;151509.00;;;10.85;100.00
44926;BME280;30662;51.210;7.656;2024-02-16T11:23:45;151540.66;;;10.97;100.00
44926;BME280;30662;51.210;7.656;2024-02-16T11:26:12;151533.06;;;10.94;100.00
44926;BME280;30662;51.210;7.656;2024-02-16T11:28:40;151521.66;;;10.90;100.00
44926;BME280;30662;51.210;7.656;2024-02-16T11:31:08;151515.34;;;10.87;100.00
44926;BME280;30662;51.210;7.656;2024-02-16T11:33:36;151509.00;;;10.85;100.00
44926;BME280;30662;51.210;7.656;2024-02-16T11:36:09;151474.81;;;10.71;100.00
44926;BME280;30662;51.210;7.656;2024-02-16T11:38:36;151484.94;;;10.75;100.00
44926;BME280;30662;51.210;7.656;2024-02-16T11:41:05;151519.13;;;10.89;100.00
44926;BME280;30662;51.210;7.656;2024-02-16T11:43:32;151519.13;;;10.89;100.00
44926;BME280;30662;51.210;7.656;2024-02-16T11:45:59;151509.00;;;10.85;100.00
44926;BME280;30662;51.210;7.656;2024-02-16T11:48:26;151527.97;;;10.92;100.00
44926;BME280;30662;51.210;7.656;2024-02-16T11:51:01;151526.72;;;10.92;100.00
44926;BME280;30662;51.210;7.656;2024-02-16T11:53:28;151511.50;;;10.86;100.00
44926;BME280;30662;51.210;7.656;2024-02-16T11:55:55;151512.78;;;10.86;100.00
44926;BME280;30662;51.210;7.656;2024-02-16T11:58:22;151501.41;;;10.82;100.00
44926;BME280;30662;51.210;7.656;2024-02-16T12:00:51;151505.19;;;10.83;100.00
44926;BME280;30662;51.210;7.656;2024-02-16T12:03:19;151535.59;;;10.95;100.00
44926;BME280;30662;51.210;7.656;2024-02-16T12:05:51;151568.53;;;11.09;100.00
44926;BME280;30662;51.210;7.656;2024-02-16T12:08:19;151544.44;;;10.99;100.00
44926;BME280;30662;51.210;7.656;2024-02-16T12:10:47;151562.19;;;11.06;100.00
44926;BME280;30662;51.210;7.656;2024-02-16T12:13:15;151578.66;;;11.13;100.00
44926;BME280;30662;51.210;7.656;2024-02-16T12:15:43;151586.28;;;11.16;100.00
44926;BME280;30662;51.210;7.656;2024-02-16T12:18:10;151567.28;;;11.08;100.00
44926;BME280;30662;51.210;7.656;2024-02-16T12:20:37;151593.84;;;11.19;100.00
44926;BME280;30662;51.210;7.656;2024-02-16T12:23:11;151582.44;;;11.14;100.00
44926;BME280;30662;51.210;7.656;2024-02-16T12:25:39;151549.53;;;11.01;100.00
44926;BME280;30662;51.210;7.656;2024-02-16T12:28:06;151604.00;;;11.23;100.00
44926;BME280;30662;51.210;7.656;2024-02-16T12:30:32;151619.16;;;11.29;100.00
44926;BME280;30662;51.210;7.656;2024-02-16T12:32:59;151681.25;;;11.54;100.00
44926;BME280;30662;51.210;7.656;2024-02-16T12:35:26;151667.31;;;11.48;100.00
44926;BME280;30662;51.210;7.656;2024-02-16T12:37:53;151674.91;;;11.51;100.00
44926;BME280;30662;51.210;7.656;2024-02-16T12:40:20;151634.38;;;11.35;100.00